createdAt,value
2023-04-18T00:01:42.118Z,9.01
2023-04-18T00:04:09.227Z,9.09
2023-04-18T00:06:36.063Z,8.91
2023-04-18T00:09:02.895Z,8.89
2023-04-18T00:11:30.386Z,8.84
2023-04-18T00:13:59.924Z,9.12
2023-04-18T00:16:28.253Z,8.76
2023-04-18T00:18:55.489Z,9.01
2023-04-18T00:21:22.669Z,9.24
2023-04-18T00:23:49.333Z,8.75
2023-04-18T00:26:15.839Z,8.83
2023-04-18T00:28:46.802Z,8.91
2023-04-18T00:31:13.490Z,8.86
2023-04-18T00:33:40.114Z,9.19
2023-04-18T00:36:06.935Z,8.96
2023-04-18T00:38:33.929Z,8.70
2023-04-18T00:41:00.505Z,8.77
2023-04-18T00:43:27.232Z,8.74
2023-04-18T00:45:54.158Z,8.76
2023-04-18T00:48:21.511Z,8.96
2023-04-18T00:50:48.241Z,8.71
2023-04-18T00:53:15.547Z,8.64
2023-04-18T00:55:42.288Z,8.61
2023-04-18T00:58:09.277Z,8.78
2023-04-18T01:00:36.138Z,8.99
2023-04-18T01:03:03.116Z,8.91
2023-04-18T01:05:29.977Z,9.03
2023-04-18T01:08:08.809Z,9.14
2023-04-18T01:10:36.141Z,9.07
2023-04-18T01:13:16.258Z,9.01
2023-04-18T01:15:43.579Z,8.87
2023-04-18T01:18:10.908Z,9.01
2023-04-18T01:20:41.592Z,8.65
2023-04-18T01:23:10.879Z,9.12
2023-04-18T01:25:38.340Z,8.83
2023-04-18T01:28:06.194Z,9.06
2023-04-18T01:30:36.006Z,8.61
2023-04-18T01:33:03.805Z,8.89
2023-04-18T01:35:30.763Z,8.90
2023-04-18T01:37:57.618Z,8.99
2023-04-18T01:40:24.525Z,8.95
2023-04-18T01:42:51.378Z,8.97
2023-04-18T01:45:19.446Z,9.21
2023-04-18T01:47:46.493Z,9.29
2023-04-18T01:50:13.462Z,9.21
2023-04-18T01:52:42.479Z,9.28
2023-04-18T01:55:09.304Z,8.98
2023-04-18T01:57:36.806Z,8.94
2023-04-18T02:00:07.772Z,8.99
2023-04-18T02:02:43.489Z,9.00
2023-04-18T02:05:10.259Z,9.27
2023-04-18T02:07:39.847Z,9.17
2023-04-18T02:10:08.948Z,9.09
2023-04-18T02:12:35.459Z,9.11
2023-04-18T02:15:02.150Z,8.98
2023-04-18T02:17:31.171Z,8.89
2023-04-18T02:19:57.998Z,9.00
2023-04-18T02:22:24.591Z,9.16
2023-04-18T02:24:51.573Z,9.19
2023-04-18T02:27:18.166Z,8.86
2023-04-18T02:29:44.883Z,9.01
2023-04-18T02:32:11.473Z,8.85
2023-04-18T02:34:38.229Z,9.07
2023-04-18T02:37:04.880Z,8.98
2023-04-18T02:39:32.360Z,9.09
2023-04-18T02:41:59.044Z,8.88
2023-04-18T02:44:25.725Z,8.72
2023-04-18T02:46:52.416Z,8.89
2023-04-18T02:49:19.212Z,8.92
2023-04-18T02:51:45.889Z,8.84
2023-04-18T02:54:12.759Z,8.87
2023-04-18T02:57:08.832Z,8.83
2023-04-18T02:59:55.668Z,8.89
2023-04-18T03:02:43.172Z,9.03
2023-04-18T03:05:23.106Z,8.87
2023-04-18T03:07:51.158Z,8.86
2023-04-18T03:10:19.246Z,8.97
2023-04-18T03:12:47.739Z,8.41
2023-04-18T03:15:16.759Z,8.58
2023-04-18T03:17:43.688Z,8.62
2023-04-18T03:20:12.781Z,8.77
2023-04-18T03:22:40.046Z,9.02
2023-04-18T03:25:07.146Z,8.99
2023-04-18T03:27:43.695Z,9.27
2023-04-18T03:30:13.393Z,8.98
2023-04-18T03:32:42.273Z,9.12
2023-04-18T03:35:09.444Z,8.78
2023-04-18T03:37:36.213Z,9.11
2023-04-18T03:40:05.476Z,8.92
2023-04-18T03:42:32.104Z,8.73
2023-04-18T03:44:58.823Z,8.73
2023-04-18T03:47:25.997Z,8.93
2023-04-18T03:49:56.532Z,8.73
2023-04-18T03:52:25.073Z,8.67
2023-04-18T03:54:51.651Z,8.45
2023-04-18T03:57:23.166Z,8.67
2023-04-18T03:59:49.954Z,8.68
2023-04-18T04:02:16.612Z,8.74
2023-04-18T04:04:43.329Z,8.71
2023-04-18T04:07:12.454Z,8.79
2023-04-18T04:09:39.132Z,8.43
2023-04-18T04:12:06.555Z,8.98
2023-04-18T04:14:33.874Z,8.54
2023-04-18T04:17:00.474Z,8.43
2023-04-18T04:19:28.590Z,8.35
2023-04-18T04:22:06.772Z,8.56
2023-04-18T04:24:33.767Z,8.28
2023-04-18T04:27:01.247Z,8.45
2023-04-18T04:29:29.133Z,8.44
2023-04-18T04:31:59.209Z,8.37
2023-04-18T04:34:34.470Z,8.33
2023-04-18T04:37:05.257Z,8.63
2023-04-18T04:39:38.084Z,8.40
2023-04-18T04:42:28.570Z,8.51
2023-04-18T04:45:03.679Z,8.31
2023-04-18T04:47:30.439Z,8.51
2023-04-18T04:49:57.046Z,8.53
2023-04-18T04:52:23.696Z,8.18
2023-04-18T04:54:51.362Z,8.48
2023-04-18T04:57:20.875Z,8.33
2023-04-18T04:59:47.613Z,8.37
2023-04-18T05:02:14.373Z,8.41
2023-04-18T05:04:41.063Z,8.36
2023-04-18T05:07:07.702Z,8.66
2023-04-18T05:09:34.236Z,8.70
2023-04-18T05:12:01.921Z,8.43
2023-04-18T05:14:28.487Z,8.28
2023-04-18T05:16:55.567Z,8.39
2023-04-18T05:19:22.191Z,8.43
2023-04-18T05:21:48.779Z,8.39
2023-04-18T05:24:15.500Z,8.23
2023-04-18T05:26:43.076Z,8.38
2023-04-18T05:29:09.668Z,8.12
2023-04-18T05:31:36.417Z,8.51
2023-04-18T05:34:03.185Z,8.68
2023-04-18T05:36:29.749Z,8.36
2023-04-18T05:38:56.310Z,8.36
2023-04-18T05:41:23.079Z,8.35
2023-04-18T05:44:01.907Z,8.45
2023-04-18T05:46:31.786Z,8.44
2023-04-18T05:48:58.425Z,8.44
2023-04-18T05:51:24.990Z,8.82
2023-04-18T05:53:51.533Z,8.90
2023-04-18T05:56:18.105Z,8.96
2023-04-18T05:58:54.533Z,8.96
2023-04-18T06:01:21.561Z,8.98
2023-04-18T06:03:48.404Z,8.84
2023-04-18T06:06:16.189Z,9.20
2023-04-18T06:08:42.819Z,8.62
2023-04-18T06:11:09.506Z,8.90
2023-04-18T06:13:36.779Z,8.82
2023-04-18T06:16:03.614Z,8.87
2023-04-18T06:18:30.387Z,9.04
2023-04-18T06:20:57.010Z,9.03
2023-04-18T06:23:23.560Z,9.01
2023-04-18T06:25:52.557Z,8.76
2023-04-18T06:28:19.104Z,8.86
2023-04-18T06:30:45.697Z,8.75
2023-04-18T06:33:12.267Z,9.17
2023-04-18T06:35:38.884Z,9.08
2023-04-18T06:38:05.519Z,8.99
2023-04-18T06:40:32.162Z,9.17
2023-04-18T06:42:58.743Z,8.74
2023-04-18T06:45:25.423Z,9.08
2023-04-18T06:47:53.176Z,8.78
2023-04-18T06:50:19.844Z,8.59
2023-04-18T06:52:46.434Z,9.20
2023-04-18T06:55:13.618Z,9.01
2023-04-18T06:57:41.262Z,8.81
2023-04-18T07:00:08.707Z,8.96
2023-04-18T07:02:38.347Z,9.04
2023-04-18T07:05:05.780Z,9.39
2023-04-18T07:07:33.012Z,9.54
2023-04-18T07:10:00.515Z,9.37
2023-04-18T07:12:27.504Z,9.84
2023-04-18T07:14:55.087Z,9.68
2023-04-18T07:17:21.632Z,10.06
2023-04-18T07:19:48.300Z,10.02
2023-04-18T07:22:14.905Z,10.26
2023-04-18T07:24:41.537Z,10.06
2023-04-18T07:27:11.829Z,10.42
2023-04-18T07:29:38.534Z,10.37
2023-04-18T07:32:06.898Z,10.50
2023-04-18T07:34:36.902Z,10.60
2023-04-18T07:37:03.492Z,10.88
2023-04-18T07:39:32.374Z,10.65
2023-04-18T07:41:58.958Z,10.86
2023-04-18T07:44:25.620Z,10.93
2023-04-18T07:46:52.171Z,10.79
2023-04-18T07:49:18.857Z,11.02
2023-04-18T07:51:45.384Z,10.98
2023-04-18T07:54:12.041Z,11.00
2023-04-18T07:56:38.612Z,11.16
2023-04-18T07:59:05.410Z,11.09
2023-04-18T08:01:32.193Z,11.07
2023-04-18T08:04:01.973Z,11.07
2023-04-18T08:06:29.406Z,11.21
2023-04-18T08:08:55.978Z,11.47
2023-04-18T08:11:22.634Z,11.66
2023-04-18T08:13:49.233Z,11.60
2023-04-18T08:16:17.475Z,12.17
2023-04-18T08:18:44.289Z,11.96
2023-04-18T08:21:10.960Z,12.24
2023-04-18T08:23:37.555Z,12.66
2023-04-18T08:26:04.237Z,12.62
2023-04-18T08:28:30.821Z,12.43
2023-04-18T08:30:57.471Z,12.91
2023-04-18T08:33:24.571Z,12.78
2023-04-18T08:35:51.551Z,12.83
2023-04-18T08:38:18.742Z,12.73
2023-04-18T08:40:45.705Z,13.40
2023-04-18T08:43:16.792Z,12.86
2023-04-18T08:45:44.269Z,12.54
2023-04-18T08:48:14.862Z,12.68
2023-04-18T08:50:41.676Z,13.28
2023-04-18T08:53:08.346Z,13.01
2023-04-18T08:55:35.760Z,13.30
2023-04-18T08:58:03.065Z,13.73
2023-04-18T09:00:30.517Z,13.31
2023-04-18T09:02:57.612Z,13.30
2023-04-18T09:05:25.535Z,13.30
2023-04-18T09:07:53.119Z,13.07
2023-04-18T09:10:29.006Z,13.28
2023-04-18T09:12:57.510Z,13.52
2023-04-18T09:15:27.134Z,13.39
2023-04-18T09:17:54.470Z,13.27
2023-04-18T09:20:31.114Z,13.43
2023-04-18T09:23:00.898Z,12.67
2023-04-18T09:25:35.877Z,12.58
2023-04-18T09:28:03.349Z,13.13
2023-04-18T09:30:36.996Z,13.25
2023-04-18T09:33:04.967Z,13.58
2023-04-18T09:35:31.723Z,13.71
2023-04-18T09:37:58.364Z,13.93
2023-04-18T09:40:25.052Z,13.60
2023-04-18T09:42:55.638Z,13.35
2023-04-18T09:45:23.008Z,13.79
2023-04-18T09:47:49.698Z,13.25
2023-04-18T09:50:18.178Z,12.90
2023-04-18T09:52:45.556Z,12.64
2023-04-18T09:55:16.572Z,12.96
2023-04-18T09:57:46.966Z,13.34
2023-04-18T10:00:24.514Z,12.92
2023-04-18T10:02:52.840Z,12.61
2023-04-18T10:05:21.337Z,13.05
2023-04-18T10:07:49.145Z,13.01
2023-04-18T10:10:15.943Z,13.14
2023-04-18T10:12:42.650Z,13.14
2023-04-18T10:15:09.907Z,13.44
2023-04-18T10:18:04.321Z,12.73
2023-04-18T10:20:33.352Z,13.22
2023-04-18T10:23:00.581Z,13.59
2023-04-18T10:25:39.280Z,13.77
2023-04-18T10:28:27.559Z,13.33
2023-04-18T10:30:56.292Z,13.08
2023-04-18T10:33:31.072Z,13.31
2023-04-18T10:36:12.664Z,13.10
2023-04-18T10:39:05.832Z,13.39
2023-04-18T10:41:33.334Z,13.25
2023-04-18T10:44:08.052Z,13.51
2023-04-18T10:46:38.792Z,13.45
2023-04-18T10:49:17.643Z,13.43
2023-04-18T10:51:45.245Z,13.51
2023-04-18T10:54:13.714Z,14.08
2023-04-18T10:56:40.625Z,14.01
2023-04-18T10:59:09.540Z,14.17
2023-04-18T11:01:37.232Z,15.05
2023-04-18T11:04:11.502Z,15.57
2023-04-18T11:06:48.949Z,15.81
2023-04-18T11:09:15.971Z,16.24
2023-04-18T11:11:43.481Z,16.00
2023-04-18T11:14:13.232Z,15.31
2023-04-18T11:16:40.142Z,14.91
2023-04-18T11:19:23.661Z,14.96
2023-04-18T11:21:51.356Z,14.66
2023-04-18T11:24:22.071Z,14.94
2023-04-18T11:26:48.717Z,14.59
2023-04-18T11:29:17.439Z,14.36
2023-04-18T11:31:51.194Z,14.24
2023-04-18T11:34:17.941Z,14.73
2023-04-18T11:36:47.961Z,15.03
2023-04-18T11:39:14.586Z,14.72
2023-04-18T11:41:41.813Z,14.74
2023-04-18T11:44:08.445Z,14.81
2023-04-18T11:46:39.689Z,15.59
2023-04-18T11:49:06.293Z,15.92
2023-04-18T11:51:34.637Z,15.88
2023-04-18T11:54:01.498Z,15.94
2023-04-18T11:56:28.135Z,15.78
2023-04-18T11:58:54.727Z,15.88
2023-04-18T12:01:21.237Z,15.91
2023-04-18T12:04:20.603Z,15.54
2023-04-18T12:06:49.945Z,16.24
2023-04-18T12:09:17.311Z,16.38
2023-04-18T12:11:43.940Z,16.01
2023-04-18T12:14:21.534Z,16.08
2023-04-18T12:16:53.620Z,15.86
2023-04-18T12:19:25.765Z,15.78
2023-04-18T12:21:56.856Z,15.73
2023-04-18T12:24:27.439Z,16.15
2023-04-18T12:26:55.209Z,15.38
2023-04-18T12:29:21.758Z,15.36
2023-04-18T12:31:48.443Z,16.83
2023-04-18T12:34:15.223Z,17.86
2023-04-18T12:36:42.455Z,17.98
2023-04-18T12:39:09.746Z,17.40
2023-04-18T12:41:36.401Z,16.61
2023-04-18T12:44:05.801Z,17.00
2023-04-18T12:46:32.527Z,16.77
2023-04-18T12:48:59.170Z,15.92
2023-04-18T12:51:26.669Z,16.31
2023-04-18T12:53:53.556Z,16.25
2023-04-18T12:56:22.079Z,16.26
2023-04-18T12:58:49.135Z,15.67
2023-04-18T13:01:16.524Z,14.90
2023-04-18T13:03:43.264Z,15.68
2023-04-18T13:06:09.960Z,16.39
2023-04-18T13:08:37.537Z,16.24
2023-04-18T13:11:04.225Z,16.98
2023-04-18T13:13:30.785Z,18.01
2023-04-18T13:15:57.368Z,19.82
2023-04-18T13:18:23.939Z,19.98
2023-04-18T13:20:50.608Z,18.32
2023-04-18T13:23:17.549Z,17.40
2023-04-18T13:25:44.153Z,16.70
2023-04-18T13:28:10.808Z,16.38
2023-04-18T13:30:37.502Z,15.97
2023-04-18T13:33:04.178Z,15.10
2023-04-18T13:35:30.924Z,14.69
2023-04-18T13:37:57.444Z,15.10
2023-04-18T13:40:25.579Z,15.19
2023-04-18T13:42:52.146Z,15.33
2023-04-18T13:45:18.816Z,15.69
2023-04-18T13:47:45.434Z,16.09
2023-04-18T13:50:12.292Z,17.38
2023-04-18T13:52:38.830Z,17.89
2023-04-18T13:55:05.690Z,17.74
2023-04-18T13:57:33.354Z,16.91
2023-04-18T13:59:59.989Z,16.36
2023-04-18T14:02:26.753Z,16.58
2023-04-18T14:04:54.944Z,16.70
2023-04-18T14:07:21.694Z,16.45
2023-04-18T14:09:48.287Z,16.31
2023-04-18T14:12:17.102Z,16.32
2023-04-18T14:14:43.692Z,16.28
2023-04-18T14:17:10.342Z,15.78
2023-04-18T14:19:36.919Z,15.71
2023-04-18T14:22:03.421Z,15.74
2023-04-18T14:24:30.037Z,15.60
2023-04-18T14:26:56.685Z,15.17
2023-04-18T14:29:23.297Z,15.18
2023-04-18T14:31:50.513Z,15.20
2023-04-18T14:34:17.134Z,15.22
2023-04-18T14:36:43.676Z,15.16
2023-04-18T14:39:11.066Z,15.22
2023-04-18T14:41:38.069Z,15.34
2023-04-18T14:44:04.795Z,15.02
2023-04-18T14:46:31.492Z,15.17
2023-04-18T14:48:58.256Z,15.22
2023-04-18T14:51:24.811Z,15.12
2023-04-18T14:53:51.694Z,15.15
2023-04-18T14:56:21.124Z,15.16
2023-04-18T14:58:48.186Z,15.21
2023-04-18T15:01:16.952Z,15.07
2023-04-18T15:03:43.667Z,15.17
2023-04-18T15:06:11.095Z,14.94
2023-04-18T15:08:41.188Z,14.60
2023-04-18T15:11:08.223Z,14.62
2023-04-18T15:13:34.969Z,15.12
2023-04-18T15:16:01.851Z,15.07
2023-04-18T15:18:28.944Z,15.32
2023-04-18T15:20:57.045Z,15.15
2023-04-18T15:23:23.710Z,15.16
2023-04-18T15:25:50.474Z,15.06
2023-04-18T15:28:18.660Z,14.97
2023-04-18T15:30:45.851Z,15.07
2023-04-18T15:33:13.310Z,14.96
2023-04-18T15:35:43.013Z,15.13
2023-04-18T15:38:09.648Z,15.12
2023-04-18T15:40:36.637Z,15.25
2023-04-18T15:43:04.050Z,15.09
2023-04-18T15:45:30.618Z,15.15
2023-04-18T15:47:57.347Z,15.55
2023-04-18T15:50:24.004Z,15.34
2023-04-18T15:52:53.327Z,15.71
2023-04-18T15:55:19.936Z,15.62
2023-04-18T15:57:46.966Z,15.85
2023-04-18T16:00:16.542Z,15.71
2023-04-18T16:02:44.115Z,15.54
2023-04-18T16:05:12.312Z,15.35
2023-04-18T16:07:42.558Z,15.29
2023-04-18T16:10:10.514Z,15.35
2023-04-18T16:12:37.800Z,15.53
2023-04-18T16:15:10.792Z,15.62
2023-04-18T16:17:37.700Z,15.25
2023-04-18T16:20:06.160Z,15.52
2023-04-18T16:22:32.938Z,15.71
2023-04-18T16:24:59.470Z,15.57
2023-04-18T16:27:33.384Z,15.75
2023-04-18T16:30:07.765Z,15.27
2023-04-18T16:32:34.391Z,15.17
2023-04-18T16:35:01.048Z,15.09
2023-04-18T16:37:27.668Z,15.04
2023-04-18T16:39:54.168Z,15.09
2023-04-18T16:42:21.927Z,15.16
2023-04-18T16:44:48.457Z,14.95
2023-04-18T16:47:15.087Z,15.34
2023-04-18T16:49:41.896Z,15.13
2023-04-18T16:52:08.488Z,15.19
2023-04-18T16:54:35.307Z,15.11
2023-04-18T16:57:02.863Z,15.04
2023-04-18T16:59:29.416Z,14.77
2023-04-18T17:01:56.095Z,15.02
2023-04-18T17:04:23.446Z,15.10
2023-04-18T17:06:51.865Z,14.96
2023-04-18T17:09:29.265Z,14.99
2023-04-18T17:11:57.962Z,15.28
2023-04-18T17:14:24.554Z,15.36
2023-04-18T17:16:53.307Z,15.29
2023-04-18T17:19:20.384Z,15.26
2023-04-18T17:21:47.176Z,15.53
2023-04-18T17:24:14.381Z,15.38
2023-04-18T17:26:46.372Z,15.48
2023-04-18T17:29:15.254Z,15.42
2023-04-18T17:31:42.134Z,15.19
2023-04-18T17:34:08.801Z,15.31
2023-04-18T17:36:35.389Z,15.00
2023-04-18T17:39:08.285Z,14.86
2023-04-18T17:44:17.293Z,14.79
2023-04-18T17:46:43.822Z,14.62
2023-04-18T17:49:11.424Z,14.72
2023-04-18T17:51:44.093Z,14.40
2023-04-18T17:54:13.096Z,14.59
2023-04-18T17:56:42.212Z,14.28
2023-04-18T17:59:09.897Z,14.01
2023-04-18T18:01:36.557Z,14.26
2023-04-18T18:04:03.285Z,14.05
2023-04-18T18:06:29.978Z,14.26
2023-04-18T18:08:59.654Z,14.08
2023-04-18T18:11:29.993Z,14.18
2023-04-18T18:13:57.529Z,14.11
2023-04-18T18:16:24.361Z,13.90
2023-04-18T18:18:51.140Z,13.91
2023-04-18T18:21:18.070Z,13.89
2023-04-18T18:23:44.752Z,13.78
2023-04-18T18:26:11.887Z,14.00
2023-04-18T18:28:38.549Z,13.98
2023-04-18T18:31:05.125Z,13.79
2023-04-18T18:33:31.710Z,13.97
2023-04-18T18:36:00.625Z,13.49
2023-04-18T18:38:27.280Z,13.86
2023-04-18T18:40:53.805Z,13.75
2023-04-18T18:43:20.469Z,13.65
2023-04-18T18:45:47.141Z,13.68
2023-04-18T18:48:14.736Z,13.46
2023-04-18T18:50:41.971Z,13.38
2023-04-18T18:53:08.591Z,13.13
2023-04-18T18:55:35.106Z,13.37
2023-04-18T18:58:04.875Z,13.19
2023-04-18T19:00:31.473Z,13.24
2023-04-18T19:02:58.130Z,13.37
2023-04-18T19:05:25.767Z,13.36
2023-04-18T19:07:53.631Z,13.28
2023-04-18T19:10:20.178Z,13.13
2023-04-18T19:12:46.819Z,13.25
2023-04-18T19:15:13.371Z,13.46
2023-04-18T19:17:41.597Z,13.42
2023-04-18T19:20:09.085Z,13.21
2023-04-18T19:22:35.725Z,12.99
2023-04-18T19:25:02.981Z,13.20
2023-04-18T19:27:29.700Z,13.43
2023-04-18T19:29:56.296Z,13.03
2023-04-18T19:32:22.897Z,13.13
2023-04-18T19:34:58.300Z,12.87
2023-04-18T19:37:24.899Z,12.99
2023-04-18T19:39:54.096Z,13.03
2023-04-18T19:42:20.849Z,13.14
2023-04-18T19:44:47.542Z,13.01
2023-04-18T19:47:23.469Z,13.02
2023-04-18T19:49:50.062Z,12.72
2023-04-18T19:52:18.432Z,12.70
2023-04-18T19:54:45.091Z,12.75
2023-04-18T19:57:13.832Z,12.87
2023-04-18T19:59:40.431Z,12.98
2023-04-18T20:02:07.079Z,13.08
2023-04-18T20:04:34.284Z,12.97
2023-04-18T20:07:01.299Z,12.79
2023-04-18T20:09:27.973Z,12.79
2023-04-18T20:11:54.540Z,12.72
2023-04-18T20:14:21.232Z,12.55
2023-04-18T20:16:49.698Z,12.85
2023-04-18T20:19:17.888Z,12.60
2023-04-18T20:21:44.593Z,12.56
2023-04-18T20:24:11.214Z,12.53
2023-04-18T20:26:37.727Z,12.46
2023-04-18T20:29:04.349Z,12.53
2023-04-18T20:31:30.922Z,12.38
2023-04-18T20:33:57.536Z,12.51
2023-04-18T20:36:25.564Z,12.02
2023-04-18T20:38:52.162Z,12.14
2023-04-18T20:41:18.904Z,12.19
2023-04-18T20:43:46.949Z,12.13
2023-04-18T20:46:14.085Z,12.43
2023-04-18T20:48:40.802Z,12.42
2023-04-18T20:51:07.400Z,12.23
2023-04-18T20:53:34.057Z,12.46
2023-04-18T20:56:01.190Z,12.49
2023-04-18T20:58:27.727Z,12.39
2023-04-18T21:00:57.115Z,12.35
2023-04-18T21:03:23.898Z,11.95
2023-04-18T21:05:50.510Z,12.18
2023-04-18T21:08:17.188Z,12.13
2023-04-18T21:10:44.513Z,12.18
2023-04-18T21:13:12.652Z,12.04
2023-04-18T21:15:40.761Z,12.01
2023-04-18T21:18:07.412Z,11.63
2023-04-18T21:20:36.382Z,12.05
2023-04-18T21:23:03.254Z,11.85
2023-04-18T21:25:32.868Z,11.64
2023-04-18T21:28:00.166Z,11.79
2023-04-18T21:30:26.728Z,11.62
2023-04-18T21:32:53.554Z,11.54
2023-04-18T21:35:24.648Z,11.52
2023-04-18T21:37:58.005Z,11.41
2023-04-18T21:40:29.130Z,11.64
2023-04-18T21:42:57.570Z,11.52
2023-04-18T21:45:24.242Z,11.51
2023-04-18T21:47:51.093Z,11.43
2023-04-18T21:50:17.765Z,11.64
2023-04-18T21:52:44.335Z,11.54
2023-04-18T21:55:10.947Z,11.61
2023-04-18T21:57:37.536Z,11.73
2023-04-18T22:00:07.716Z,11.42
2023-04-18T22:02:35.986Z,11.60
2023-04-18T22:05:02.999Z,11.46
2023-04-18T22:07:29.690Z,11.42
2023-04-18T22:09:58.525Z,11.26
2023-04-18T22:12:26.482Z,11.09
2023-04-18T22:14:53.177Z,11.29
2023-04-18T22:17:21.976Z,11.14
2023-04-18T22:19:55.730Z,11.14
2023-04-18T22:22:22.378Z,11.21
2023-04-18T22:24:49.005Z,11.23
2023-04-18T22:27:15.634Z,11.37
2023-04-18T22:29:44.466Z,11.31
2023-04-18T22:32:11.045Z,10.76
2023-04-18T22:34:37.589Z,10.83
2023-04-18T22:37:04.232Z,10.90
2023-04-18T22:39:31.223Z,10.92
2023-04-18T22:41:57.802Z,10.93
2023-04-18T22:44:24.324Z,10.86
2023-04-18T22:46:54.483Z,10.98
2023-04-18T22:49:22.256Z,11.00
2023-04-18T22:51:49.600Z,10.64
2023-04-18T22:54:16.407Z,10.78
2023-04-18T22:56:43.170Z,10.76
2023-04-18T22:59:09.740Z,10.42
2023-04-18T23:01:36.297Z,10.31
2023-04-18T23:04:03.178Z,10.34
2023-04-18T23:06:29.978Z,10.42
2023-04-18T23:08:56.593Z,10.34
2023-04-18T23:11:23.196Z,10.50
2023-04-18T23:13:49.858Z,10.55
2023-04-18T23:16:18.889Z,10.37
2023-04-18T23:18:45.649Z,9.88
2023-04-18T23:21:15.611Z,10.37
2023-04-18T23:23:42.190Z,10.20
2023-04-18T23:26:15.424Z,10.04
2023-04-18T23:28:42.427Z,9.97
2023-04-18T23:31:09.302Z,9.99
2023-04-18T23:33:36.569Z,9.60
2023-04-18T23:36:03.393Z,9.35
2023-04-18T23:38:30.710Z,9.12
2023-04-18T23:40:57.284Z,9.39
2023-04-18T23:43:26.942Z,9.12
2023-04-18T23:45:53.546Z,9.03
2023-04-18T23:48:20.247Z,8.77
2023-04-18T23:50:50.318Z,8.94
2023-04-18T23:53:19.929Z,8.71
2023-04-18T23:55:48.017Z,8.87
2023-04-18T23:58:16.099Z,8.80
